Time;durP1;ratioP1;P1;durP2;ratioP2;P2;SDS_P1;SDS_P2;PMS_P1;PMS_P2;Temp;Humidity;BMP_temperature;BMP_pressure;BME280_temperature;BME280_humidity;BME280_pressure;Samples;Min_cycle;Max_cycle;Signal;HPM_P1;HPM_P2
2022/10/01 00:00:22;;;;;;;8.10;5.23;;;;;;;9.60;100.00;100228.19;4909275;29;20080;-82
2022/10/01 00:02:47;;;;;;;7.80;5.93;;;;;;;9.66;100.00;100237.84;4904045;29;20300;-81
2022/10/01 00:05:12;;;;;;;10.00;6.83;;;;;;;9.66;100.00;100219.91;4894608;29;20085;-82
2022/10/01 00:07:42;;;;;;;9.70;6.23;;;;;;;9.65;100.00;100212.16;4907800;29;20036;-82
2022/10/01 00:10:09;;;;;;;8.82;5.30;;;;;;;9.66;100.00;100208.41;4902632;29;20525;-82
2022/10/01 00:12:36;;;;;;;6.88;5.10;;;;;;;9.66;100.00;100200.38;4878892;29;20027;-82
2022/10/01 00:15:02;;;;;;;7.03;5.95;;;;;;;9.67;100.00;100200.09;4897756;29;20032;-82
2022/10/01 00:17:27;;;;;;;5.93;5.10;;;;;;;9.67;100.00;100196.63;4896634;29;20357;-82
2022/10/01 00:19:52;;;;;;;7.37;6.00;;;;;;;9.66;100.00;100181.66;4895477;29;20048;-82
2022/10/01 00:22:18;;;;;;;6.67;5.40;;;;;;;9.64;100.00;100173.09;4913341;29;20025;-82
2022/10/01 00:24:46;;;;;;;6.20;4.97;;;;;;;9.68;100.00;100171.47;4897829;29;20032;-82
2022/10/01 00:27:12;;;;;;;8.93;5.23;;;;;;;9.64;100.00;100165.06;4889872;29;20039;-82
2022/10/01 00:29:39;;;;;;;8.53;5.70;;;;;;;9.55;100.00;100156.78;4898300;29;20297;-82
2022/10/01 00:32:04;;;;;;;8.05;5.05;;;;;;;9.61;100.00;100160.25;4877185;29;20028;-82
2022/10/01 00:34:30;;;;;;;10.10;5.53;;;;;;;9.55;100.00;100156.78;4908267;29;20047;-83
2022/10/01 00:36:55;;;;;;;9.23;5.90;;;;;;;9.63;100.00;100163.47;4905233;29;20064;-82
2022/10/01 00:39:21;;;;;;;8.37;5.67;;;;;;;9.57;100.00;100151.97;4894652;29;20039;-82
2022/10/01 00:41:46;;;;;;;6.07;5.05;;;;;;;9.65;100.00;100142.59;4894490;29;20269;-82
2022/10/01 00:44:33;;;;;;;9.23;5.83;;;;;;;9.68;100.00;100118.78;4902621;29;20036;-82
2022/10/01 00:47:27;;;;;;;8.73;6.20;;;;;;;9.64;100.00;100143.66;4900870;29;20047;-82
2022/10/01 00:49:58;;;;;;;7.78;5.53;;;;;;;9.71;100.00;100165.59;4894207;29;20041;-82
2022/10/01 00:52:27;;;;;;;5.95;5.15;;;;;;;9.67;100.00;100157.31;4897615;29;20024;-82
2022/10/01 00:55:18;;;;;;;6.70;4.47;;;;;;;9.72;100.00;100166.41;4911045;29;20070;-82
2022/10/01 00:57:44;;;;;;;11.75;5.10;;;;;;;9.66;100.00;100152.22;4900028;29;20084;-82
2022/10/01 01:00:12;;;;;;;6.30;4.95;;;;;;;9.75;100.00;100185.38;4911035;29;20020;-82
2022/10/01 01:02:37;;;;;;;9.40;4.90;;;;;;;9.75;100.00;100153.28;4898499;29;20123;-82
2022/10/01 01:05:03;;;;;;;8.93;4.70;;;;;;;9.74;100.00;100153.56;4894590;29;20387;-82
2022/10/01 01:07:31;;;;;;;7.22;4.82;;;;;;;9.79;100.00;100167.72;4899127;29;20135;-82
2022/10/01 01:09:57;;;;;;;8.13;5.55;;;;;;;9.75;100.00;100164.00;4911244;29;20400;-82
2022/10/01 01:12:43;;;;;;;15.20;5.37;;;;;;;9.71;100.00;100170.94;4901086;29;20025;-82
2022/10/01 01:15:35;;;;;;;8.23;5.18;;;;;;;9.73;100.00;100158.09;4910901;29;20036;-82
2022/10/01 01:18:08;;;;;;;7.32;5.45;;;;;;;9.73;100.00;100135.91;4900028;29;20437;-83
2022/10/01 01:20:41;;;;;;;8.80;5.38;;;;;;;9.67;100.00;100117.19;4901532;29;20024;-83
2022/10/01 01:23:09;;;;;;;5.60;4.57;;;;;;;9.70;100.00;100107.81;4911719;29;20039;-83
2022/10/01 01:25:44;;;;;;;12.25;5.60;;;;;;;9.66;100.00;100118.25;4895947;29;20063;-83
2022/10/01 01:28:17;;;;;;;8.23;5.60;;;;;;;9.66;100.00;100082.69;4898836;29;20111;-82
2022/10/01 01:30:43;;;;;;;5.68;5.10;;;;;;;9.58;100.00;100033.22;4913583;29;20024;-83
2022/10/01 01:33:16;;;;;;;6.47;5.00;;;;;;;9.63;100.00;100025.16;4899206;29;20060;-82
2022/10/01 01:35:50;;;;;;;8.20;5.10;;;;;;;9.60;100.00;100014.19;4897914;29;20376;-82
2022/10/01 01:38:26;;;;;;;6.07;5.13;;;;;;;9.63;100.00;99968.97;4881811;29;20434;-83
2022/10/01 01:40:55;;;;;;;8.65;5.00;;;;;;;9.61;100.00;99978.38;4897387;29;20795;-83
2022/10/01 01:43:28;;;;;;;7.88;4.45;;;;;;;9.61;100.00;99946.25;4894604;29;20035;-83
2022/10/01 01:45:53;;;;;;;7.53;4.30;;;;;;;9.55;100.00;99954.28;4906910;29;20040;-83
2022/10/01 01:48:21;;;;;;;5.57;3.85;;;;;;;9.60;100.00;100030.25;4901710;29;20032;-83
2022/10/01 01:50:51;;;;;;;6.80;4.27;;;;;;;9.61;100.00;100046.03;4882751;29;20080;-83
2022/10/01 01:53:18;;;;;;;5.45;4.32;;;;;;;9.59;100.00;100042.81;4909501;29;20039;-82
2022/10/01 01:55:46;;;;;;;5.72;4.30;;;;;;;9.61;100.00;100027.28;4916997;29;20055;-83
2022/10/01 01:58:11;;;;;;;5.63;4.50;;;;;;;9.59;100.00;100012.59;4913476;29;20025;-83
2022/10/01 02:00:38;;;;;;;5.10;4.53;;;;;;;9.54;100.00;100016.09;4907333;29;20040;-83
2022/10/01 02:03:05;;;;;;;6.85;4.10;;;;;;;9.61;100.00;100031.84;4903251;29;20115;-83
2022/10/01 02:05:42;;;;;;;5.75;4.15;;;;;;;9.53;100.00;100034.00;4886062;29;20382;-83
2022/10/01 02:08:33;;;;;;;4.70;3.55;;;;;;;9.59;100.00;100029.44;4905385;29;20058;-84
2022/10/01 02:11:16;;;;;;;7.47;4.03;;;;;;;9.62;100.00;100044.16;4913992;29;20445;-83
2022/10/01 02:13:46;;;;;;;5.82;4.10;;;;;;;9.56;100.00;100019.31;4915498;29;20038;-83
2022/10/01 02:16:26;;;;;;;10.05;3.70;;;;;;;9.60;100.00;100020.34;4915733;29;20062;-83
2022/10/01 02:19:29;;;;;;;5.60;3.90;;;;;;;9.60;100.00;100030.25;4915847;29;20035;-82
2022/10/01 02:21:59;;;;;;;4.53;3.17;;;;;;;9.60;100.00;100028.38;4906519;29;20040;-83
2022/10/01 02:24:47;;;;;;;5.40;3.50;;;;;;;9.54;100.00;100018.75;4901767;29;20319;-82
2022/10/01 02:27:28;;;;;;;6.85;3.45;;;;;;;9.55;100.00;100012.34;4893435;29;20039;-83
2022/10/01 02:29:57;;;;;;;4.00;3.25;;;;;;;9.60;100.00;100019.56;4905014;29;20596;-83
2022/10/01 02:32:23;;;;;;;4.07;3.08;;;;;;;9.55;100.00;99997.09;4894983;29;20029;-82
2022/10/01 02:34:49;;;;;;;3.13;2.83;;;;;;;9.57;100.00;100006.72;4882896;29;20035;-83
2022/10/01 02:37:20;;;;;;;3.10;2.80;;;;;;;9.59;100.00;100001.91;4898907;29;20024;-83
2022/10/01 02:39:49;;;;;;;3.58;3.00;;;;;;;9.62;100.00;100006.72;4900904;29;20449;-83
2022/10/01 02:42:18;;;;;;;3.15;2.70;;;;;;;9.55;100.00;99983.72;4908367;29;20695;-83
2022/10/01 02:44:45;;;;;;;3.00;2.65;;;;;;;9.62;100.00;99980.75;4902267;29;20132;-83
2022/10/01 02:47:25;;;;;;;3.05;2.72;;;;;;;9.59;100.00;99975.94;4899830;29;20039;-84
2022/10/01 02:49:51;;;;;;;4.97;2.40;;;;;;;9.65;100.00;99974.88;4917935;29;20107;-82
2022/10/01 02:52:30;;;;;;;2.90;2.63;;;;;;;9.65;100.00;99974.88;4917955;29;20067;-83
2022/10/01 02:54:57;;;;;;;3.05;2.13;;;;;;;9.66;100.00;99973.78;4908784;29;20024;-83
2022/10/01 02:57:23;;;;;;;3.50;2.70;;;;;;;9.64;100.00;99972.47;4902556;29;20024;-83
2022/10/01 02:59:50;;;;;;;3.97;2.80;;;;;;;9.62;100.00;99974.63;4912912;29;20034;-83
2022/10/01 03:02:16;;;;;;;3.35;2.45;;;;;;;9.64;100.00;99969.81;4915303;29;20032;-83
2022/10/01 03:04:41;;;;;;;2.85;2.55;;;;;;;9.63;100.00;99978.91;4915421;29;20028;-83
2022/10/01 03:07:06;;;;;;;3.33;2.37;;;;;;;9.68;100.00;99990.38;4913901;29;20064;-83
2022/10/01 03:09:35;;;;;;;4.57;2.75;;;;;;;9.70;100.00;99987.41;4912024;29;20092;-83
2022/10/01 03:12:01;;;;;;;3.20;2.37;;;;;;;9.68;100.00;99962.81;4892318;29;20047;-83
2022/10/01 03:14:27;;;;;;;4.45;2.58;;;;;;;9.65;100.00;99958.03;4904449;29;20481;-83
2022/10/01 03:16:53;;;;;;;4.28;2.10;;;;;;;9.74;100.00;99967.06;4896571;29;20044;-83
2022/10/01 03:19:19;;;;;;;3.55;2.45;;;;;;;9.75;100.00;99976.72;4906839;29;20037;-83
2022/10/01 03:21:44;;;;;;;3.10;2.80;;;;;;;9.68;100.00;99946.75;4914389;29;20028;-83
2022/10/01 03:24:10;;;;;;;4.03;2.73;;;;;;;9.70;100.00;99961.47;4898539;29;20021;-83
2022/10/01 03:26:35;;;;;;;3.20;2.60;;;;;;;9.71;100.00;99964.94;4911215;29;20348;-83
2022/10/01 03:29:01;;;;;;;2.43;2.20;;;;;;;9.79;100.00;99967.06;4901280;29;20385;-83
2022/10/01 03:31:26;;;;;;;2.40;2.20;;;;;;;9.69;100.00;99953.72;4909330;29;20028;-83
2022/10/01 03:33:52;;;;;;;2.27;2.00;;;;;;;9.82;100.00;99981.75;4897521;29;20028;-84
2022/10/01 03:36:17;;;;;;;2.17;1.80;;;;;;;9.82;100.00;99969.19;4896368;29;20028;-83
2022/10/01 03:38:42;;;;;;;2.90;1.80;;;;;;;9.82;100.00;99966.53;4898839;29;20119;-83
2022/10/01 03:41:08;;;;;;;2.40;1.60;;;;;;;9.77;100.00;99963.06;4903379;29;20393;-83
2022/10/01 03:43:33;;;;;;;2.80;1.67;;;;;;;9.81;100.00;99967.59;4900102;29;20059;-84
2022/10/01 03:46:00;;;;;;;4.78;1.67;;;;;;;9.90;100.00;99972.38;4878979;29;20124;-84
2022/10/01 03:48:26;;;;;;;4.97;1.70;;;;;;;9.82;100.00;99963.03;4879129;29;20024;-84
2022/10/01 03:50:56;;;;;;;2.65;1.30;;;;;;;9.92;100.00;99978.25;4895520;29;20025;-84
2022/10/01 03:53:22;;;;;;;1.83;1.48;;;;;;;9.91;100.00;99982.81;4913561;29;20155;-83
2022/10/01 03:55:48;;;;;;;1.42;1.15;;;;;;;9.91;100.00;99973.97;4915061;29;20110;-83
2022/10/01 03:58:13;;;;;;;1.50;1.20;;;;;;;9.93;100.00;99974.50;4914903;29;20457;-82
2022/10/01 04:00:38;;;;;;;1.20;1.00;;;;;;;9.95;100.00;99967.78;4896143;29;20040;-82
2022/10/01 04:03:05;;;;;;;1.90;1.30;;;;;;;10.01;100.00;99981.97;4895954;29;20410;-82
2022/10/01 04:05:30;;;;;;;1.15;1.00;;;;;;;10.02;100.00;99988.94;4898458;29;20038;-81
2022/10/01 04:07:56;;;;;;;2.80;1.03;;;;;;;9.93;100.00;99972.63;4893565;29;20032;-83
2022/10/01 04:10:21;;;;;;;5.68;0.95;;;;;;;10.04;100.00;99980.63;4914088;29;20098;-83
2022/10/01 04:12:47;;;;;;;2.10;0.90;;;;;;;10.06;100.00;99994.53;4914830;29;20099;-82
2022/10/01 04:15:12;;;;;;;2.00;0.87;;;;;;;10.07;100.00;99990.78;4909003;29;20037;-81
2022/10/01 04:17:37;;;;;;;1.30;0.98;;;;;;;10.05;100.00;99988.34;4900935;29;20036;-82
2022/10/01 04:20:03;;;;;;;1.97;0.80;;;;;;;10.12;100.00;99988.88;4913264;29;20062;-81
2022/10/01 04:22:29;;;;;;;3.40;0.93;;;;;;;10.16;100.00;99994.47;4913380;29;20034;-82
2022/10/01 04:24:54;;;;;;;1.15;1.00;;;;;;;10.13;100.00;99984.31;4914318;29;20028;-81
2022/10/01 04:27:19;;;;;;;1.47;0.73;;;;;;;10.14;100.00;99988.59;4914140;29;20412;-81
2022/10/01 04:29:44;;;;;;;2.43;0.90;;;;;;;10.21;100.00;99996.34;4914099;29;20028;-81
2022/10/01 04:32:10;;;;;;;2.83;1.00;;;;;;;10.19;100.00;99991.25;4903601;29;20107;-81
2022/10/01 04:34:53;;;;;;;0.93;0.70;;;;;;;10.21;100.00;99990.97;4908444;29;20040;-81
2022/10/01 04:37:20;;;;;;;1.88;0.82;;;;;;;10.21;100.00;99996.34;4895308;29;20497;-81
2022/10/01 04:39:47;;;;;;;1.58;0.82;;;;;;;10.28;100.00;100004.84;4878239;29;20035;-81
2022/10/01 04:42:12;;;;;;;1.55;0.75;;;;;;;10.26;100.00;100002.47;4895633;29;20036;-82
2022/10/01 04:44:38;;;;;;;1.83;0.90;;;;;;;10.24;100.00;99996.56;4894472;29;20039;-82
2022/10/01 04:47:03;;;;;;;0.73;0.73;;;;;;;10.26;100.00;100002.47;4900574;29;20032;-82
2022/10/01 04:49:31;;;;;;;2.47;0.80;;;;;;;10.27;100.00;100006.75;4895754;29;20036;-82
2022/10/01 04:51:56;;;;;;;1.00;0.80;;;;;;;10.33;100.00;100007.50;4907829;29;20552;-82
2022/10/01 04:54:21;;;;;;;2.23;1.03;;;;;;;10.39;100.00;100011.00;4896801;29;20040;-81
2022/10/01 04:56:47;;;;;;;1.53;1.20;;;;;;;10.40;100.00;100018.75;4896929;29;20040;-82
2022/10/01 04:59:12;;;;;;;2.23;1.07;;;;;;;10.41;100.00;100017.66;4914012;29;20484;-82
2022/10/01 05:01:37;;;;;;;2.00;1.10;;;;;;;10.43;100.00;100020.06;4911558;29;20036;-81
2022/10/01 05:04:02;;;;;;;3.00;1.13;;;;;;;10.40;100.00;100013.41;4907220;29;20063;-81
2022/10/01 05:06:28;;;;;;;2.00;1.37;;;;;;;10.50;100.00;100033.16;4894715;29;20107;-82
2022/10/01 05:08:53;;;;;;;1.63;1.30;;;;;;;10.53;100.00;100029.94;4909638;29;20087;-82
2022/10/01 05:11:18;;;;;;;2.70;1.40;;;;;;;10.52;100.00;100029.13;4913040;29;20115;-83
2022/10/01 05:13:44;;;;;;;3.60;1.30;;;;;;;10.55;100.00;100033.16;4911011;29;20036;-83
2022/10/01 05:16:10;;;;;;;1.90;1.45;;;;;;;10.59;100.00;100034.19;4903014;29;20110;-83
2022/10/01 05:18:38;;;;;;;2.13;1.30;;;;;;;10.59;100.00;100039.56;4897212;29;20607;-83
2022/10/01 05:21:04;;;;;;;3.13;1.73;;;;;;;10.53;100.00;100033.41;4885161;29;20811;-83
2022/10/01 05:23:30;;;;;;;2.58;1.52;;;;;;;10.63;100.00;100037.91;4912826;29;20032;-83
2022/10/01 05:25:55;;;;;;;2.95;1.80;;;;;;;10.66;100.00;100045.38;4901236;29;20274;-83
2022/10/01 05:28:20;;;;;;;2.17;1.90;;;;;;;10.66;100.00;100045.38;4907045;29;20071;-84
2022/10/01 05:30:46;;;;;;;3.13;1.90;;;;;;;10.65;100.00;100051.81;4923872;29;20024;-84
2022/10/01 05:33:11;;;;;;;2.80;2.10;;;;;;;10.68;100.00;100053.16;4927240;29;20486;-86
2022/10/01 05:35:36;;;;;;;3.33;2.27;;;;;;;10.71;100.00;100061.44;4914611;29;20040;-85
2022/10/01 05:38:02;;;;;;;3.17;2.63;;;;;;;10.71;100.00;100064.13;4897126;29;20428;-84
2022/10/01 05:40:29;;;;;;;4.10;2.27;;;;;;;10.74;100.00;100063.56;4900925;29;20491;-83
2022/10/01 05:42:56;;;;;;;4.75;2.55;;;;;;;10.73;100.00;100070.00;4899496;29;20032;-84
2022/10/01 05:45:22;;;;;;;3.40;3.00;;;;;;;10.74;100.00;100068.94;4895713;29;20115;-84
2022/10/01 05:47:59;;;;;;;10.68;3.17;;;;;;;10.68;100.00;100051.28;4894598;29;20037;-84
2022/10/01 05:50:25;;;;;;;3.90;3.10;;;;;;;10.80;100.00;100080.41;4894231;29;20026;-83
2022/10/01 05:52:53;;;;;;;4.88;3.42;;;;;;;10.76;100.00;100071.31;4893807;29;20054;-83
2022/10/01 05:55:19;;;;;;;4.30;3.30;;;;;;;10.76;100.00;100082.03;4904687;29;20365;-83
2022/10/01 05:57:56;;;;;;;6.57;3.65;;;;;;;10.73;100.00;100074.56;4910366;29;20499;-84
2022/10/01 06:00:21;;;;;;;4.40;3.77;;;;;;;10.91;100.00;100100.69;4925673;29;20563;-83
2022/10/01 06:02:51;;;;;;;4.13;3.70;;;;;;;10.88;100.00;100089.75;4908028;29;20324;-84
2022/10/01 06:05:17;;;;;;;4.35;3.50;;;;;;;10.88;100.00;100092.44;4881187;29;20036;-87
2022/10/01 06:07:43;;;;;;;4.80;4.18;;;;;;;10.89;100.00;100083.31;4915660;29;20060;-86
2022/10/01 06:10:08;;;;;;;8.07;4.40;;;;;;;10.98;100.00;100102.28;4899014;29;20047;-86
2022/10/01 06:12:33;;;;;;;5.20;4.03;;;;;;;10.95;100.00;100092.94;4908295;29;20061;-88
2022/10/01 06:14:59;;;;;;;6.13;4.00;;;;;;;10.92;100.00;100096.16;4885823;29;20059;-88
2022/10/01 06:17:24;;;;;;;7.27;4.37;;;;;;;10.81;100.00;100090.06;4912440;29;20300;-89
2022/10/01 06:19:50;;;;;;;10.93;4.40;;;;;;;10.74;100.00;100085.00;4908589;29;20032;-92
2022/10/01 06:22:17;;;;;;;4.95;4.15;;;;;;;10.83;100.00;100111.22;4908737;29;20029;-87
2022/10/01 06:24:42;;;;;;;5.05;4.30;;;;;;;10.83;100.00;100114.72;4900592;29;20088;-89
2022/10/01 06:27:09;;;;;;;7.13;4.47;;;;;;;10.89;100.00;100118.16;4899755;29;20024;-83
2022/10/01 06:29:34;;;;;;;7.72;4.72;;;;;;;10.94;100.00;100120.81;4901076;29;20030;-87
2022/10/01 06:32:00;;;;;;;8.53;5.40;;;;;;;11.00;100.00;100118.91;4914693;29;20107;-89
2022/10/01 06:34:25;;;;;;;9.00;5.53;;;;;;;11.06;100.00;100115.91;4916543;29;20032;-89
2022/10/01 06:36:50;;;;;;;9.70;5.90;;;;;;;11.14;100.00;100124.41;4912302;29;20619;-89
2022/10/01 06:39:16;;;;;;;8.70;5.72;;;;;;;11.19;100.00;100119.03;4927528;29;20091;-91
2022/10/01 06:41:42;;;;;;;10.33;5.73;;;;;;;11.16;100.00;100112.34;4936907;29;20040;-90
2022/10/01 06:44:09;;;;;;;12.52;5.97;;;;;;;11.27;100.00;100123.81;4915568;29;20460;-88
2022/10/01 06:46:35;;;;;;;8.57;5.97;;;;;;;11.32;100.00;100134.47;4904626;29;20524;-88
2022/10/01 06:49:01;;;;;;;10.40;6.33;;;;;;;11.34;100.00;100116.22;4914697;29;20036;-87
2022/10/01 06:54:10;;;;;;;8.18;7.18;;;;;;;11.51;100.00;100128.44;4915444;29;20055;-88
2022/10/01 06:56:35;;;;;;;8.50;6.53;;;;;;;11.60;100.00;100153.59;4915068;29;20032;-87
2022/10/01 06:59:02;;;;;;;11.43;6.60;;;;;;;11.70;100.00;100136.59;4916218;29;20085;-88
2022/10/01 07:01:27;;;;;;;9.95;7.05;;;;;;;11.86;100.00;100136.47;4915153;29;20039;-87
2022/10/01 07:03:53;;;;;;;10.03;7.47;;;;;;;11.93;100.00;100143.09;4914082;29;20028;-88
2022/10/01 07:06:20;;;;;;;9.00;7.15;;;;;;;12.01;100.00;100147.06;4913913;29;20536;-87
2022/10/01 07:08:49;;;;;;;9.95;7.10;;;;;;;12.02;100.00;100139.84;4915818;29;20087;-88
2022/10/01 07:11:14;;;;;;;14.68;7.07;;;;;;;12.05;100.00;100145.44;4913315;29;20042;-88
2022/10/01 07:13:40;;;;;;;12.90;6.83;;;;;;;12.07;100.00;100147.81;4913707;29;20035;-87
2022/10/01 07:16:06;;;;;;;10.00;7.03;;;;;;;12.10;100.00;100149.94;4900489;29;20028;-88
2022/10/01 07:18:31;;;;;;;15.90;7.13;;;;;;;12.19;100.00;100152.81;4915783;29;20028;-87
2022/10/01 07:20:56;;;;;;;12.70;6.90;;;;;;;12.21;100.00;100151.47;4914765;29;20556;-88
2022/10/01 07:23:23;;;;;;;11.85;7.22;;;;;;;12.37;100.00;100160.13;4914319;29;20433;-88
2022/10/01 07:25:49;;;;;;;8.90;7.60;;;;;;;12.64;100.00;100169.50;4899384;29;20396;-88
2022/10/01 07:28:18;;;;;;;11.73;7.70;;;;;;;12.96;100.00;100169.91;4896609;29;20281;-88
2022/10/01 07:30:46;;;;;;;13.35;7.93;;;;;;;13.09;100.00;100163.81;4896795;29;20048;-87
2022/10/01 07:33:12;;;;;;;9.75;7.43;;;;;;;13.18;100.00;100163.94;4896814;29;20366;-88
2022/10/01 07:35:38;;;;;;;13.85;7.60;;;;;;;13.30;100.00;100179.66;4910045;29;20048;-88
2022/10/01 07:38:06;;;;;;;9.97;7.03;;;;;;;13.28;100.00;100169.16;4913977;29;20034;-88
2022/10/01 07:40:32;;;;;;;11.45;6.82;;;;;;;13.35;100.00;100194.91;4914467;29;20031;-88
2022/10/01 07:42:57;;;;;;;8.88;6.43;;;;;;;13.14;100.00;100192.53;4915353;29;20028;-87
2022/10/01 07:45:24;;;;;;;12.60;6.70;;;;;;;12.98;100.00;100205.34;4906001;29;20091;-85
2022/10/01 07:47:53;;;;;;;14.70;7.25;;;;;;;12.71;100.00;100201.41;4895275;29;20044;-85
2022/10/01 07:50:19;;;;;;;14.35;6.95;;;;;;;12.57;100.00;100201.28;4895516;29;20025;-85
2022/10/01 07:52:44;;;;;;;31.80;7.63;;;;;;;12.53;100.00;100216.38;4904256;29;20036;-84
2022/10/01 07:55:12;;;;;;;29.27;7.43;;;;;;;12.35;100.00;100212.56;4911798;29;20036;-85
2022/10/01 07:57:38;;;;;;;11.00;7.40;;;;;;;12.41;100.00;100230.22;4914868;29;20039;-83
2022/10/01 08:00:04;;;;;;;19.67;7.67;;;;;;;12.33;100.00;100228.16;4914454;29;20020;-84
2022/10/01 08:02:30;;;;;;;14.95;8.18;;;;;;;12.36;100.00;100232.97;4897450;29;20040;-84
2022/10/01 08:07:39;;;;;;;13.25;8.73;;;;;;;12.44;100.00;100244.97;4915201;29;20470;-85
2022/10/01 08:10:04;;;;;;;15.00;9.47;;;;;;;12.41;100.00;100231.03;4919691;29;20036;-84
2022/10/01 08:12:30;;;;;;;17.42;9.85;;;;;;;12.47;100.00;100242.50;4916260;29;20083;-85
2022/10/01 08:14:56;;;;;;;15.93;10.10;;;;;;;12.49;100.00;100242.25;4892459;29;20068;-85
2022/10/01 08:17:22;;;;;;;15.25;9.38;;;;;;;12.44;100.00;100229.63;4891090;29;20028;-86
2022/10/01 08:19:47;;;;;;;16.67;10.05;;;;;;;12.42;100.00;100232.63;4912234;29;20507;-86
2022/10/01 08:22:13;;;;;;;18.43;10.37;;;;;;;12.64;100.00;100241.25;4914508;29;20115;-86
2022/10/01 08:24:38;;;;;;;22.07;11.83;;;;;;;12.78;100.00;100242.16;4913153;29;20044;-86
2022/10/01 08:27:04;;;;;;;19.20;11.50;;;;;;;12.94;100.00;100258.13;4912745;29;20028;-86
2022/10/01 08:29:31;;;;;;;19.97;10.60;;;;;;;12.98;100.00;100276.09;4912335;29;20359;-86
2022/10/01 08:31:57;;;;;;;17.23;11.25;;;;;;;13.07;100.00;100278.94;4900216;29;20025;-86
2022/10/01 08:34:22;;;;;;;18.57;10.83;;;;;;;13.13;100.00;100275.13;4904107;29;20400;-86
2022/10/01 08:36:51;;;;;;;16.17;10.13;;;;;;;13.08;100.00;100267.09;4911403;29;20801;-86
2022/10/01 08:39:17;;;;;;;14.17;8.97;;;;;;;13.26;100.00;100270.91;4912849;29;20024;-86
2022/10/01 08:41:57;;;;;;;16.00;10.00;;;;;;;13.33;100.00;100279.41;4913695;29;20347;-87
2022/10/01 08:44:29;;;;;;;12.02;8.30;;;;;;;13.30;100.00;100273.81;4912180;29;20070;-87
2022/10/01 08:47:02;;;;;;;15.13;8.13;;;;;;;13.38;100.00;100285.84;4910068;29;20024;-86
2022/10/01 08:49:39;;;;;;;12.60;6.75;;;;;;;13.28;100.00;100289.47;4914238;29;20055;-86
2022/10/01 08:52:35;;;;;;;10.88;5.60;;;;;;;13.13;100.00;100288.56;4914313;29;20024;-87
2022/10/01 08:55:10;;;;;;;8.23;5.15;;;;;;;13.02;100.00;100292.44;4912849;29;20664;-86
2022/10/01 08:57:45;;;;;;;7.53;5.30;;;;;;;12.79;100.00;100273.34;4913887;29;20464;-86
2022/10/01 09:00:14;;;;;;;8.20;5.53;;;;;;;12.88;100.00;100292.34;4913590;29;20031;-86
2022/10/01 09:02:41;;;;;;;10.13;5.10;;;;;;;12.84;100.00;100291.31;4909314;29;20613;-86
2022/10/01 09:05:25;;;;;;;9.77;4.90;;;;;;;12.71;100.00;100288.22;4913974;29;20038;-86
2022/10/01 09:07:57;;;;;;;7.97;4.38;;;;;;;12.58;100.00;100283.53;4896783;29;20039;-86
2022/10/01 09:10:45;;;;;;;12.60;5.07;;;;;;;12.76;100.00;100295.44;4896488;29;20123;-86
2022/10/01 09:13:17;;;;;;;11.93;5.18;;;;;;;12.88;100.00;100305.78;4912600;29;20032;-87
2022/10/01 09:16:05;;;;;;;15.10;4.90;;;;;;;12.87;100.00;100309.56;4902676;29;20045;-86
2022/10/01 09:18:57;;;;;;;14.18;5.18;;;;;;;12.97;100.00;100309.44;4888412;29;20045;-86
2022/10/01 09:21:34;;;;;;;13.52;5.80;;;;;;;13.08;100.00;100326.28;4913416;29;20036;-86
2022/10/01 09:24:09;;;;;;;17.75;6.00;;;;;;;13.23;100.00;100328.00;4912619;29;20124;-86
2022/10/01 09:26:47;;;;;;;15.93;6.87;;;;;;;13.40;100.00;100322.16;4896340;29;20115;-86
2022/10/01 09:29:21;;;;;;;19.67;6.77;;;;;;;13.52;100.00;100315.53;4914200;29;20637;-87
2022/10/01 09:31:50;;;;;;;23.30;7.28;;;;;;;13.63;100.00;100317.00;4913620;29;20461;-88
2022/10/01 09:34:34;;;;;;;24.92;6.75;;;;;;;13.81;100.00;100328.06;4909678;29;20032;-87
2022/10/01 09:37:22;;;;;;;26.05;7.07;;;;;;;13.87;100.00;100314.22;4912020;29;20032;-87
2022/10/01 09:40:18;;;;;;;20.20;5.70;;;;;;;14.08;100.00;100317.41;4915038;29;20120;-86
2022/10/01 09:42:44;;;;;;;14.10;5.45;;;;;;;14.43;100.00;100343.25;4916696;29;20054;-87
2022/10/01 09:45:19;;;;;;;23.90;5.80;;;;;;;14.47;100.00;100336.19;4908377;29;20497;-87
2022/10/01 09:47:49;;;;;;;17.55;4.07;;;;;;;14.38;100.00;100331.50;4898241;29;20021;-87
2022/10/01 09:50:20;;;;;;;12.40;3.72;;;;;;;14.44;100.00;100328.69;4901505;29;20031;-86
2022/10/01 09:52:50;;;;;;;20.50;3.83;;;;;;;14.41;100.00;100313.13;4913640;29;20047;-87
2022/10/01 09:55:39;;;;;;;14.52;3.20;;;;;;;14.49;100.00;100324.03;4917019;29;20494;-86
2022/10/01 09:58:09;;;;;;;14.35;2.85;;;;;;;14.39;100.00;100327.69;4917432;29;20028;-86
2022/10/01 10:00:36;;;;;;;16.70;3.20;;;;;;;14.34;100.00;100324.25;4916135;29;20024;-87
2022/10/01 10:03:02;;;;;;;19.05;2.50;;;;;;;14.34;100.00;100335.03;4916240;29;20032;-87
2022/10/01 10:05:40;;;;;;;17.90;2.70;;;;;;;14.48;100.00;100351.25;4916465;29;20044;-87
2022/10/01 10:08:18;;;;;;;14.07;2.85;;;;;;;14.60;100.00;100340.81;4899794;29;20056;-88
2022/10/01 10:11:10;;;;;;;20.13;2.97;;;;;;;14.86;100.00;100351.16;4898041;29;20123;-88
2022/10/01 10:13:42;;;;;;;19.27;2.63;;;;;;;15.09;100.00;100351.28;4905814;29;20127;-87
2022/10/01 10:16:16;;;;;;;14.52;2.58;;;;;;;15.33;100.00;100352.97;4900057;29;20044;-88
2022/10/01 10:18:45;;;;;;;14.98;2.08;;;;;;;15.38;100.00;100366.34;4897984;29;20017;-87
2022/10/01 10:21:15;;;;;;;17.98;2.28;;;;;;;15.32;100.00;100381.88;4897338;29;20024;-89
2022/10/01 10:23:50;;;;;;;13.25;1.95;;;;;;;15.46;100.00;100387.25;4909119;29;20404;-88
2022/10/01 10:26:19;;;;;;;11.60;1.90;;;;;;;15.81;100.00;100397.59;4887666;29;20048;-89
2022/10/01 10:28:45;;;;;;;17.33;2.17;;;;;;;16.03;100.00;100394.97;4898172;29;20377;-88
2022/10/01 10:31:23;;;;;;;12.20;2.03;;;;;;;16.43;100.00;100397.00;4897504;29;20119;-87
2022/10/01 10:34:15;;;;;;;11.82;2.17;;;;;;;16.75;100.00;100405.97;4892648;29;20060;-89
2022/10/01 10:36:43;;;;;;;17.65;2.33;;;;;;;16.76;100.00;100404.88;4916396;29;20036;-87
2022/10/01 10:39:28;;;;;;;12.13;2.00;;;;;;;16.92;100.00;100412.59;4904839;29;20038;-88
2022/10/01 10:41:55;;;;;;;13.70;2.50;;;;;;;17.03;100.00;100413.16;4910309;29;20039;-88
2022/10/01 10:44:23;;;;;;;19.40;2.33;;;;;;;17.23;100.00;100418.03;4901242;29;20029;-88
2022/10/01 10:46:52;;;;;;;11.60;2.30;;;;;;;17.21;100.00;100414.81;4910151;29;20269;-89
2022/10/01 10:49:31;;;;;;;13.00;2.28;;;;;;;17.16;100.00;100416.88;4920390;29;20035;-88
2022/10/01 10:51:59;;;;;;;15.48;1.90;;;;;;;17.11;100.00;100420.50;4914678;29;20019;-88
2022/10/01 10:54:39;;;;;;;12.25;1.95;;;;;;;17.17;100.00;100429.28;4930443;29;20036;-88
2022/10/01 10:57:26;;;;;;;13.85;1.95;;;;;;;17.34;100.00;100433.97;4898624;29;20029;-89
2022/10/01 10:59:56;;;;;;;10.85;1.90;;;;;;;17.20;100.00;100443.00;4898423;29;20036;-88
2022/10/01 11:02:24;;;;;;;14.20;2.35;;;;;;;16.79;100.00;100442.13;4898054;29;20031;-89
2022/10/01 11:04:50;;;;;;;15.25;2.10;;;;;;;16.32;100.00;100450.56;4916033;29;20067;-89
2022/10/01 11:07:23;;;;;;;13.93;2.10;;;;;;;15.78;100.00;100461.13;4916893;29;20040;-89
2022/10/01 11:10:16;;;;;;;9.53;1.87;;;;;;;15.54;100.00;100461.34;4915888;29;20280;-89
2022/10/01 11:13:06;;;;;;;12.48;1.77;;;;;;;15.33;100.00;100461.75;4913083;29;20035;-88
2022/10/01 11:16:02;;;;;;;9.68;1.98;;;;;;;15.50;100.00;100463.88;4912280;29;20461;-88
2022/10/01 11:18:33;;;;;;;11.38;1.48;;;;;;;15.65;100.00;100461.97;4879202;29;20283;-87
2022/10/01 11:21:21;;;;;;;7.80;1.88;;;;;;;15.50;100.00;100474.66;4915671;29;20028;-90
2022/10/01 11:24:13;;;;;;;14.75;2.00;;;;;;;15.50;100.00;100471.16;4903485;29;20121;-86
2022/10/01 11:26:47;;;;;;;13.45;1.88;;;;;;;15.19;100.00;100471.72;4896291;29;20048;-86
2022/10/01 11:29:21;;;;;;;12.02;2.20;;;;;;;15.08;100.00;100481.91;4897127;29;20057;-86
2022/10/01 11:32:15;;;;;;;13.27;2.10;;;;;;;15.05;100.00;100482.50;4897958;29;20389;-86
2022/10/01 11:34:53;;;;;;;11.53;1.90;;;;;;;15.00;100.00;100480.69;4914625;29;20371;-86
2022/10/01 11:37:40;;;;;;;16.17;2.45;;;;;;;15.41;100.00;100485.34;4915676;29;20046;-86